sensor_id;sensor_type;location;lat;lon;timestamp;pressure;altitude;pressure_sealevel;temperature;humidity
20889;BME280;10604;51.976;7.594;2023-02-20T19:10:51;101238.38;;;8.11;100.00
20889;BME280;10604;51.976;7.594;2023-02-20T19:13:17;101238.81;;;8.47;100.00
20889;BME280;10604;51.976;7.594;2023-02-20T19:15:42;101239.50;;;8.61;100.00
20889;BME280;10604;51.976;7.594;2023-02-20T19:18:07;101242.97;;;8.66;100.00
20889;BME280;10604;51.976;7.594;2023-02-20T19:20:33;101244.59;;;8.73;100.00
20889;BME280;10604;51.976;7.594;2023-02-20T19:22:59;101233.94;;;8.82;100.00
20889;BME280;10604;51.976;7.594;2023-02-20T19:25:26;101232.06;;;8.89;100.00
20889;BME280;10604;51.976;7.594;2023-02-20T19:27:51;101234.00;;;8.79;100.00
20889;BME280;10604;51.976;7.594;2023-02-20T19:30:17;101230.97;;;9.03;100.00
20889;BME280;10604;51.976;7.594;2023-02-20T19:32:45;101240.75;;;8.95;100.00
20889;BME280;10604;51.976;7.594;2023-02-20T19:35:10;101235.41;;;9.01;100.00
20889;BME280;10604;51.976;7.594;2023-02-20T19:37:36;101231.84;;;9.02;100.00
20889;BME280;10604;51.976;7.594;2023-02-20T19:40:04;101231.81;;;9.06;100.00
20889;BME280;10604;51.976;7.594;2023-02-20T19:42:30;101241.50;;;9.03;100.00
20889;BME280;10604;51.976;7.594;2023-02-20T19:44:55;101242.22;;;9.15;100.00
20889;BME280;10604;51.976;7.594;2023-02-20T19:47:21;101252.78;;;9.12;100.00
20889;BME280;10604;51.976;7.594;2023-02-20T19:49:47;101242.25;;;9.12;100.00
20889;BME280;10604;51.976;7.594;2023-02-20T19:52:13;101245.72;;;9.14;100.00
20889;BME280;10604;51.976;7.594;2023-02-20T19:54:43;101250.22;;;9.07;100.00
20889;BME280;10604;51.976;7.594;2023-02-20T19:57:09;101256.25;;;9.14;100.00
20889;BME280;10604;51.976;7.594;2023-02-20T19:59:34;101240.50;;;9.11;100.00
20889;BME280;10604;51.976;7.594;2023-02-20T20:02:00;101243.94;;;9.16;100.00
20889;BME280;10604;51.976;7.594;2023-02-20T20:04:27;101236.94;;;9.15;100.00
20889;BME280;10604;51.976;7.594;2023-02-20T20:06:54;101234.13;;;9.25;100.00
20889;BME280;10604;51.976;7.594;2023-02-20T20:09:21;101224.72;;;9.11;100.00
20889;BME280;10604;51.976;7.594;2023-02-20T20:11:47;101234.31;;;9.16;100.00
20889;BME280;10604;51.976;7.594;2023-02-20T20:14:13;101224.69;;;9.14;100.00
20889;BME280;10604;51.976;7.594;2023-02-20T20:16:38;101231.63;;;9.18;100.00
20889;BME280;10604;51.976;7.594;2023-02-20T20:19:07;101229.06;;;9.15;100.00
20889;BME280;10604;51.976;7.594;2023-02-20T20:21:34;101228.19;;;9.13;100.00
20889;BME280;10604;51.976;7.594;2023-02-20T20:24:00;101226.47;;;9.12;100.00
20889;BME280;10604;51.976;7.594;2023-02-20T20:26:27;101222.06;;;9.12;100.00
20889;BME280;10604;51.976;7.594;2023-02-20T20:28:53;101229.81;;;9.23;100.00
20889;BME280;10604;51.976;7.594;2023-02-20T20:31:23;101217.56;;;9.19;100.00
20889;BME280;10604;51.976;7.594;2023-02-20T20:33:49;101221.16;;;9.15;100.00
20889;BME280;10604;51.976;7.594;2023-02-20T20:36:15;101220.19;;;9.20;100.00
20889;BME280;10604;51.976;7.594;2023-02-20T20:38:41;101224.72;;;9.11;100.00
20889;BME280;10604;51.976;7.594;2023-02-20T20:41:06;101216.78;;;9.14;100.00
20889;BME280;10604;51.976;7.594;2023-02-20T20:43:32;101222.91;;;9.16;100.00
20889;BME280;10604;51.976;7.594;2023-02-20T20:45:57;101213.19;;;9.19;100.00
20889;BME280;10604;51.976;7.594;2023-02-20T20:48:23;101218.44;;;9.19;100.00
20889;BME280;10604;51.976;7.594;2023-02-20T20:50:49;101216.69;;;9.18;100.00
20889;BME280;10604;51.976;7.594;2023-02-20T20:53:14;101208.00;;;9.15;100.00
20889;BME280;10604;51.976;7.594;2023-02-20T20:55:40;101209.75;;;9.16;100.00
20889;BME280;10604;51.976;7.594;2023-02-20T20:58:05;101208.78;;;9.20;100.00
20889;BME280;10604;51.976;7.594;2023-02-20T21:00:32;101207.13;;;9.16;100.00
20889;BME280;10604;51.976;7.594;2023-02-20T21:02:59;101206.25;;;9.14;100.00
20889;BME280;10604;51.976;7.594;2023-02-20T21:05:27;101215.00;;;9.16;100.00
20889;BME280;10604;51.976;7.594;2023-02-20T21:07:53;101214.94;;;9.19;100.00
20889;BME280;10604;51.976;7.594;2023-02-20T21:10:19;101215.72;;;9.24;100.00
20889;BME280;10604;51.976;7.594;2023-02-20T21:12:45;101214.00;;;9.23;100.00
20889;BME280;10604;51.976;7.594;2023-02-20T21:15:11;101208.69;;;9.24;100.00
20889;BME280;10604;51.976;7.594;2023-02-20T21:17:37;101217.53;;;9.22;100.00
20889;BME280;10604;51.976;7.594;2023-02-20T21:20:04;101215.78;;;9.21;100.00
20889;BME280;10604;51.976;7.594;2023-02-20T21:22:33;101213.25;;;9.16;100.00
20889;BME280;10604;51.976;7.594;2023-02-20T21:24:59;101201.84;;;9.16;100.00
20889;BME280;10604;51.976;7.594;2023-02-20T21:27:24;101198.28;;;9.17;100.00
20889;BME280;10604;51.976;7.594;2023-02-20T21:29:49;101197.38;;;9.21;100.00
20889;BME280;10604;51.976;7.594;2023-02-20T21:32:15;101196.47;;;9.22;100.00
20889;BME280;10604;51.976;7.594;2023-02-20T21:34:40;101192.97;;;9.23;100.00
20889;BME280;10604;51.976;7.594;2023-02-20T21:37:06;101192.16;;;9.18;100.00
20889;BME280;10604;51.976;7.594;2023-02-20T21:39:31;101199.94;;;9.24;100.00
20889;BME280;10604;51.976;7.594;2023-02-20T21:41:57;101194.75;;;9.21;100.00
20889;BME280;10604;51.976;7.594;2023-02-20T21:44:43;101192.97;;;9.23;100.00
20889;BME280;10604;51.976;7.594;2023-02-20T21:47:09;101181.59;;;9.19;100.00
20889;BME280;10604;51.976;7.594;2023-02-20T21:49:40;101189.34;;;9.28;100.00
20889;BME280;10604;51.976;7.594;2023-02-20T21:52:06;101188.44;;;9.29;100.00
20889;BME280;10604;51.976;7.594;2023-02-20T21:54:32;101195.59;;;9.23;100.00
20889;BME280;10604;51.976;7.594;2023-02-20T21:56:58;101189.38;;;9.27;100.00
20889;BME280;10604;51.976;7.594;2023-02-20T21:59:24;101193.72;;;9.29;100.00
20889;BME280;10604;51.976;7.594;2023-02-20T22:01:50;101196.22;;;9.35;100.00
20889;BME280;10604;51.976;7.594;2023-02-20T22:04:16;101189.97;;;9.42;100.00
20889;BME280;10604;51.976;7.594;2023-02-20T22:06:43;101190.84;;;9.43;100.00
20889;BME280;10604;51.976;7.594;2023-02-20T22:09:12;101189.25;;;9.33;100.00
20889;BME280;10604;51.976;7.594;2023-02-20T22:14:24;101184.69;;;9.42;100.00
20889;BME280;10604;51.976;7.594;2023-02-20T22:17:08;101181.28;;;9.37;100.00
20889;BME280;10604;51.976;7.594;2023-02-20T22:19:53;101179.63;;;9.32;100.00
20889;BME280;10604;51.976;7.594;2023-02-20T22:22:38;101175.22;;;9.32;100.00
20889;BME280;10604;51.976;7.594;2023-02-20T22:25:22;101188.34;;;9.35;100.00
20889;BME280;10604;51.976;7.594;2023-02-20T22:28:06;101196.16;;;9.40;100.00
20889;BME280;10604;51.976;7.594;2023-02-20T22:30:50;101185.69;;;9.37;100.00
20889;BME280;10604;51.976;7.594;2023-02-20T22:33:34;101192.72;;;9.35;100.00
20889;BME280;10604;51.976;7.594;2023-02-20T22:36:18;101192.72;;;9.35;100.00
20889;BME280;10604;51.976;7.594;2023-02-20T22:39:03;101189.22;;;9.36;100.00
20889;BME280;10604;51.976;7.594;2023-02-20T22:41:47;101176.97;;;9.32;100.00
20889;BME280;10604;51.976;7.594;2023-02-20T22:44:31;101183.06;;;9.35;100.00
20889;BME280;10604;51.976;7.594;2023-02-20T22:47:15;101183.88;;;9.39;100.00
20889;BME280;10604;51.976;7.594;2023-02-20T22:49:59;101176.78;;;9.44;100.00
20889;BME280;10604;51.976;7.594;2023-02-20T22:52:43;101174.84;;;9.52;100.00
20889;BME280;10604;51.976;7.594;2023-02-20T22:55:27;101187.25;;;9.47;100.00
20889;BME280;10604;51.976;7.594;2023-02-20T22:58:11;101180.31;;;9.43;100.00
20889;BME280;10604;51.976;7.594;2023-02-20T23:00:55;101174.94;;;9.49;100.00
20889;BME280;10604;51.976;7.594;2023-02-20T23:03:39;101188.00;;;9.54;100.00
20889;BME280;10604;51.976;7.594;2023-02-20T23:06:24;101179.44;;;9.42;100.00
20889;BME280;10604;51.976;7.594;2023-02-20T23:09:08;101190.88;;;9.40;100.00
20889;BME280;10604;51.976;7.594;2023-02-20T23:11:53;101193.38;;;9.48;100.00
20889;BME280;10604;51.976;7.594;2023-02-20T23:14:38;101185.47;;;9.49;100.00
20889;BME280;10604;51.976;7.594;2023-02-20T23:17:22;101189.63;;;9.59;100.00
20889;BME280;10604;51.976;7.594;2023-02-20T23:20:12;101187.13;;;9.53;100.00
20889;BME280;10604;51.976;7.594;2023-02-20T23:22:56;101202.19;;;9.45;100.00
20889;BME280;10604;51.976;7.594;2023-02-20T23:25:40;101192.38;;;9.53;100.00
20889;BME280;10604;51.976;7.594;2023-02-20T23:28:24;101200.25;;;9.55;100.00
20889;BME280;10604;51.976;7.594;2023-02-20T23:31:08;101199.47;;;9.51;100.00
20889;BME280;10604;51.976;7.594;2023-02-20T23:33:52;101198.53;;;9.54;100.00
20889;BME280;10604;51.976;7.594;2023-02-20T23:36:36;101197.78;;;9.47;100.00
20889;BME280;10604;51.976;7.594;2023-02-20T23:39:20;101188.97;;;9.48;100.00
20889;BME280;10604;51.976;7.594;2023-02-20T23:42:04;101197.78;;;9.47;100.00
20889;BME280;10604;51.976;7.594;2023-02-20T23:44:48;101201.13;;;9.55;100.00
20889;BME280;10604;51.976;7.594;2023-02-20T23:47:32;101194.19;;;9.51;100.00
20889;BME280;10604;51.976;7.594;2023-02-20T23:50:16;101193.25;;;9.54;100.00
20889;BME280;10604;51.976;7.594;2023-02-20T23:52:59;101188.09;;;9.48;100.00
20889;BME280;10604;51.976;7.594;2023-02-20T23:55:43;101188.81;;;9.57;100.00
20889;BME280;10604;51.976;7.594;2023-02-20T23:58:29;101189.63;;;9.61;100.00
